Time;durP1;ratioP1;P1;durP2;ratioP2;P2;SDS_P1;SDS_P2;PMS_P1;PMS_P2;Temp;Humidity;BMP_temperature;BMP_pressure;BME280_temperature;BME280_humidity;BME280_pressure;Samples;Min_cycle;Max_cycle;Signal;HPM_P1;HPM_P2
2021/12/12 00:01:50;;;;;;;55.83;26.20;;;3.60;99.90;;;;;;4961893;28;20108;-76
2021/12/12 00:04:32;;;;;;;58.22;27.98;;;3.60;99.90;;;;;;4996087;28;20057;-76
2021/12/12 00:07:00;;;;;;;55.67;26.45;;;3.60;99.90;;;;;;4995874;28;20049;-77
2021/12/12 00:09:33;;;;;;;63.92;28.08;;;3.60;99.90;;;;;;4996195;28;20066;-76
2021/12/12 00:12:03;;;;;;;50.30;24.95;;;3.60;99.90;;;;;;4978484;28;20137;-76
2021/12/12 00:14:31;;;;;;;52.22;26.48;;;3.70;99.90;;;;;;4995837;28;20116;-76
2021/12/12 00:17:00;;;;;;;53.03;28.08;;;3.70;99.90;;;;;;4995438;28;20069;-75
2021/12/12 00:19:28;;;;;;;63.03;26.25;;;3.70;99.90;;;;;;4978300;28;20065;-75
2021/12/12 00:21:57;;;;;;;61.95;25.58;;;3.60;99.90;;;;;;4995571;28;20055;-77
2021/12/12 00:24:23;;;;;;;65.68;26.85;;;3.70;99.90;;;;;;4977506;28;20054;-76
2021/12/12 00:26:51;;;;;;;57.50;25.48;;;3.70;99.90;;;;;;4995525;28;20157;-78
2021/12/12 00:29:19;;;;;;;66.32;27.15;;;3.70;99.90;;;;;;4995232;28;20042;-77
2021/12/12 00:31:47;;;;;;;57.05;25.13;;;3.70;99.90;;;;;;4995822;28;20049;-77
2021/12/12 00:34:14;;;;;;;60.97;26.63;;;3.70;99.90;;;;;;4995651;28;20121;-76
2021/12/12 00:36:41;;;;;;;50.85;25.85;;;3.80;99.90;;;;;;4995537;28;20061;-77
2021/12/12 00:39:17;;;;;;;53.53;24.40;;;3.80;99.90;;;;;;4995108;28;20054;-77
2021/12/12 00:41:50;;;;;;;50.15;25.67;;;3.80;99.90;;;;;;4995374;28;20097;-77
2021/12/12 00:44:16;;;;;;;54.95;26.35;;;3.80;99.90;;;;;;4977483;28;20046;-76
2021/12/12 00:46:43;;;;;;;53.63;26.45;;;3.80;99.90;;;;;;4995256;28;20489;-77
2021/12/12 00:49:11;;;;;;;54.28;25.95;;;3.80;99.90;;;;;;4995431;28;20050;-76
2021/12/12 00:51:40;;;;;;;59.50;25.80;;;3.80;99.90;;;;;;4977770;28;20086;-76
2021/12/12 00:54:08;;;;;;;56.80;24.88;;;3.80;99.90;;;;;;4994920;28;20042;-77
2021/12/12 00:56:33;;;;;;;49.17;24.25;;;3.80;99.90;;;;;;4994940;28;20065;-77
2021/12/12 00:59:01;;;;;;;62.45;25.85;;;3.80;99.90;;;;;;4977734;28;20132;-76
2021/12/12 01:01:31;;;;;;;48.05;26.13;;;3.90;99.90;;;;;;4995013;28;20054;-78
2021/12/12 01:04:02;;;;;;;53.35;25.42;;;3.90;99.90;;;;;;4995156;28;20128;-76
2021/12/12 01:06:28;;;;;;;52.92;27.02;;;3.90;99.90;;;;;;4977117;28;20509;-76
2021/12/12 01:08:57;;;;;;;58.33;25.60;;;3.90;99.90;;;;;;4994559;28;20049;-77
2021/12/12 01:11:33;;;;;;;50.35;25.02;;;3.90;99.90;;;;;;4994777;28;20466;-76
2021/12/12 01:14:01;;;;;;;51.38;25.83;;;3.90;99.90;;;;;;4994795;28;20501;-76
2021/12/12 01:16:36;;;;;;;51.97;24.38;;;3.90;99.90;;;;;;4994709;28;20046;-77
2021/12/12 01:19:10;;;;;;;56.75;25.35;;;3.90;99.90;;;;;;4994900;28;20050;-76
2021/12/12 01:21:40;;;;;;;53.92;26.58;;;3.90;99.90;;;;;;4977057;28;20050;-76
2021/12/12 01:24:15;;;;;;;47.85;25.08;;;3.90;99.90;;;;;;4994697;28;20105;-78
2021/12/12 01:26:42;;;;;;;54.30;24.48;;;3.90;99.90;;;;;;4994515;28;20089;-77
2021/12/12 01:29:08;;;;;;;55.22;24.50;;;4.00;99.90;;;;;;4994332;28;20485;-76
2021/12/12 01:31:39;;;;;;;60.78;25.00;;;4.40;99.90;;;;;;4994512;28;20050;-78
2021/12/12 01:34:11;;;;;;;45.95;25.23;;;4.00;99.90;;;;;;4994453;28;20053;-78
2021/12/12 01:36:47;;;;;;;51.63;23.55;;;4.00;99.90;;;;;;4994086;28;20425;-77
2021/12/12 01:39:14;;;;;;;47.67;23.92;;;4.00;99.90;;;;;;4994107;28;20054;-77
2021/12/12 01:41:52;;;;;;;50.17;24.52;;;4.00;99.90;;;;;;4994015;28;20050;-78
2021/12/12 01:44:34;;;;;;;61.75;24.52;;;4.10;99.90;;;;;;4976782;28;20073;-78
2021/12/12 01:47:56;;;;;;;54.97;24.83;;;4.00;99.90;;;;;;4960492;28;20054;-78
2021/12/12 01:50:52;;;;;;;59.80;24.85;;;4.00;99.90;;;;;;4896244;29;20052;-78
2021/12/12 01:53:21;;;;;;;49.90;24.50;;;4.10;99.90;;;;;;4894337;29;20052;-78
2021/12/12 01:56:05;;;;;;;55.38;23.45;;;4.10;99.90;;;;;;4880210;29;20059;-79
2021/12/12 01:58:33;;;;;;;58.22;24.80;;;4.10;99.90;;;;;;4880090;29;20120;-79
2021/12/12 02:01:10;;;;;;;54.13;24.90;;;4.10;99.90;;;;;;4896060;29;20053;-79
2021/12/12 02:03:42;;;;;;;50.17;22.85;;;4.10;99.90;;;;;;4895902;29;20105;-78
2021/12/12 02:06:10;;;;;;;53.08;24.65;;;4.20;99.90;;;;;;4880364;29;20052;-79
2021/12/12 02:08:38;;;;;;;49.17;24.13;;;4.30;99.90;;;;;;4895814;29;20127;-79
2021/12/12 02:11:10;;;;;;;52.60;23.60;;;4.20;99.90;;;;;;4895685;29;20080;-79
2021/12/12 02:13:46;;;;;;;48.85;24.20;;;4.20;99.90;;;;;;4895701;29;20536;-79
2021/12/12 02:16:12;;;;;;;47.10;23.42;;;4.20;99.90;;;;;;4895618;29;20060;-78
2021/12/12 02:18:44;;;;;;;53.10;24.08;;;4.20;99.90;;;;;;4895673;29;20052;-78
2021/12/12 02:21:23;;;;;;;58.17;23.95;;;4.30;99.90;;;;;;4895604;29;20060;-78
2021/12/12 02:35:26;;;;;;;50.13;22.15;;;4.30;99.90;;;;;;4992996;28;20050;-79
2021/12/12 02:37:57;;;;;;;42.67;21.25;;;4.40;99.90;;;;;;4993211;28;20089;-79
2021/12/12 02:40:32;;;;;;;43.35;20.73;;;4.40;99.90;;;;;;4993339;28;20057;-77
2021/12/12 02:42:59;;;;;;;49.70;21.92;;;4.40;99.90;;;;;;4993042;28;20060;-78
2021/12/12 02:45:29;;;;;;;50.15;20.77;;;4.40;99.90;;;;;;4993191;28;20050;-78
2021/12/12 02:48:02;;;;;;;54.03;23.30;;;4.40;99.90;;;;;;4992521;28;20038;-78
2021/12/12 02:50:42;;;;;;;54.35;22.20;;;4.50;99.90;;;;;;4975747;28;20090;-78
2021/12/12 02:53:16;;;;;;;46.92;21.75;;;4.50;99.90;;;;;;4975663;28;20049;-78
2021/12/12 02:55:47;;;;;;;45.08;20.90;;;4.50;99.90;;;;;;4992925;28;20513;-78
2021/12/12 02:58:16;;;;;;;43.47;18.88;;;4.50;99.90;;;;;;4974634;28;20054;-78
2021/12/12 03:01:08;;;;;;;59.90;22.65;;;4.50;99.90;;;;;;4992892;28;20489;-79
2021/12/12 03:03:37;;;;;;;54.17;22.42;;;4.60;99.90;;;;;;4965031;28;20564;-79
2021/12/12 03:06:09;;;;;;;45.20;21.10;;;4.60;99.90;;;;;;4975644;28;20052;-79
2021/12/12 03:08:39;;;;;;;46.70;20.42;;;4.60;99.90;;;;;;4975771;28;20042;-79
2021/12/12 03:11:06;;;;;;;43.65;19.05;;;4.60;99.90;;;;;;4992804;28;20054;-79
2021/12/12 03:13:31;;;;;;;39.08;18.30;;;4.60;99.90;;;;;;4992909;28;20031;-79
2021/12/12 03:15:57;;;;;;;36.83;18.40;;;4.60;99.90;;;;;;4975374;28;20076;-78
2021/12/12 03:18:28;;;;;;;38.72;16.67;;;4.60;99.90;;;;;;4992739;28;20074;-78
2021/12/12 03:21:01;;;;;;;35.92;17.92;;;4.70;99.90;;;;;;4992846;28;20062;-79
2021/12/12 03:23:33;;;;;;;42.15;18.35;;;4.70;99.90;;;;;;4975054;28;20051;-78
2021/12/12 03:26:03;;;;;;;37.92;18.60;;;4.70;99.90;;;;;;4975472;28;20054;-78
2021/12/12 03:28:33;;;;;;;30.02;15.20;;;4.70;99.90;;;;;;4992570;28;20046;-78
2021/12/12 03:31:04;;;;;;;35.17;17.65;;;4.70;99.90;;;;;;4975142;28;20051;-79
2021/12/12 03:33:31;;;;;;;29.42;16.10;;;4.80;99.90;;;;;;4992614;28;20125;-80
2021/12/12 03:35:59;;;;;;;29.35;15.52;;;4.80;99.90;;;;;;4992100;28;20385;-78
2021/12/12 03:38:28;;;;;;;28.02;16.08;;;5.10;99.90;;;;;;4992432;28;20155;-78
2021/12/12 03:41:00;;;;;;;35.30;16.77;;;4.80;99.90;;;;;;4992836;28;20172;-79
2021/12/12 03:43:27;;;;;;;30.17;16.23;;;4.80;99.90;;;;;;4992702;28;20038;-79
2021/12/12 03:45:53;;;;;;;31.25;14.70;;;5.30;99.90;;;;;;4992327;28;20173;-79
2021/12/12 03:48:25;;;;;;;33.03;16.05;;;4.80;99.90;;;;;;4992513;28;20053;-79
2021/12/12 03:50:54;;;;;;;34.38;16.60;;;4.80;99.90;;;;;;4992394;28;20065;-79
2021/12/12 03:53:20;;;;;;;31.88;15.90;;;4.80;99.90;;;;;;4975037;28;20133;-79
2021/12/12 03:55:48;;;;;;;31.95;15.25;;;4.70;99.90;;;;;;4958953;28;20085;-79
2021/12/12 03:58:14;;;;;;;26.55;13.60;;;4.80;99.90;;;;;;4959936;28;20088;-79
2021/12/12 04:00:43;;;;;;;29.02;13.95;;;4.80;99.90;;;;;;4995636;28;20046;-79
2021/12/12 04:03:11;;;;;;;29.15;15.48;;;5.40;99.90;;;;;;4996156;28;20042;-79
2021/12/12 04:05:38;;;;;;;26.08;15.13;;;4.90;99.90;;;;;;4962331;28;20082;-78
2021/12/12 04:08:05;;;;;;;26.63;14.10;;;4.80;99.90;;;;;;4996265;28;20077;-79
2021/12/12 04:10:31;;;;;;;27.33;14.23;;;4.80;99.90;;;;;;4995881;28;20086;-77
2021/12/12 04:12:58;;;;;;;29.83;15.43;;;4.80;99.90;;;;;;4996083;28;20088;-80
2021/12/12 04:15:24;;;;;;;23.17;14.25;;;5.20;99.90;;;;;;4962497;28;20587;-78
2021/12/12 04:17:50;;;;;;;27.58;13.73;;;4.80;99.90;;;;;;4995553;28;20053;-78
2021/12/12 04:20:23;;;;;;;20.55;12.93;;;5.40;99.90;;;;;;4962247;28;20085;-78
2021/12/12 04:22:48;;;;;;;22.30;12.63;;;4.70;99.90;;;;;;4995972;28;20058;-78
2021/12/12 04:25:15;;;;;;;22.10;12.63;;;4.70;99.90;;;;;;4995929;28;20595;-80
2021/12/12 04:27:42;;;;;;;21.88;13.05;;;5.10;99.90;;;;;;4995678;28;20411;-78
2021/12/12 04:30:11;;;;;;;26.88;13.60;;;4.90;99.90;;;;;;4995364;28;20441;-79
2021/12/12 04:32:37;;;;;;;25.80;13.70;;;4.70;99.90;;;;;;4977434;28;20094;-78
2021/12/12 04:35:05;;;;;;;26.45;13.55;;;4.70;99.90;;;;;;4995413;28;20097;-79
2021/12/12 04:37:31;;;;;;;22.55;12.07;;;4.80;99.90;;;;;;4995579;28;20074;-78
2021/12/12 04:39:58;;;;;;;21.50;12.73;;;5.30;99.90;;;;;;4995645;28;20442;-79
2021/12/12 04:42:34;;;;;;;24.17;13.00;;;4.70;99.90;;;;;;4995388;28;20116;-78
2021/12/12 04:45:14;;;;;;;20.20;12.23;;;4.80;99.90;;;;;;4995413;28;20058;-79
2021/12/12 04:51:07;;;;;;;22.83;11.35;;;4.70;99.90;;;;;;4994845;28;20497;-77
2021/12/12 04:53:51;;;;;;;21.75;11.95;;;4.80;99.90;;;;;;4995700;28;20042;-78
2021/12/12 04:56:31;;;;;;;15.40;10.30;;;4.80;99.90;;;;;;4994780;28;20049;-78
2021/12/12 04:59:06;;;;;;;18.92;10.50;;;4.80;99.90;;;;;;4977362;28;20057;-81
2021/12/12 05:02:04;;;;;;;18.58;10.93;;;4.80;99.90;;;;;;4977408;28;20050;-77
2021/12/12 05:04:42;;;;;;;15.73;10.10;;;4.80;99.90;;;;;;4896479;29;20535;-78
2021/12/12 05:07:22;;;;;;;15.85;10.65;;;4.80;99.90;;;;;;4881714;29;20060;-79
2021/12/12 05:09:56;;;;;;;16.92;10.50;;;4.80;99.90;;;;;;4880559;29;20468;-79
2021/12/12 05:12:31;;;;;;;14.75;9.40;;;4.80;99.90;;;;;;4881352;29;20063;-79
2021/12/12 05:15:01;;;;;;;;;;;4.80;99.90;;;;;;4897123;29;20090;-79
2021/12/12 05:17:33;;;;;;;14.20;9.13;;;4.80;99.90;;;;;;4881306;29;19935;-80
2021/12/12 05:20:04;;;;;;;17.38;10.55;;;5.60;99.90;;;;;;4896542;29;20052;-77
2021/12/12 05:22:38;;;;;;;14.27;9.93;;;4.90;99.90;;;;;;4896352;29;20056;-79
2021/12/12 05:25:08;;;;;;;14.73;9.90;;;4.90;99.90;;;;;;4896642;29;20055;-78
2021/12/12 05:27:37;;;;;;;15.68;9.40;;;4.90;99.90;;;;;;4896586;29;20060;-79
2021/12/12 05:30:13;;;;;;;19.27;10.20;;;4.90;99.90;;;;;;4880776;29;20096;-77
2021/12/12 05:32:40;;;;;;;16.17;9.80;;;5.00;99.90;;;;;;4896631;29;20053;-77
2021/12/12 05:35:10;;;;;;;13.77;9.63;;;5.40;99.90;;;;;;4880519;29;20061;-79
2021/12/12 05:37:36;;;;;;;15.07;8.18;;;5.00;99.90;;;;;;4896295;29;20100;-78
2021/12/12 05:40:08;;;;;;;17.63;10.63;;;5.00;99.90;;;;;;4910873;28;20473;-76
2021/12/12 05:42:34;;;;;;;14.75;9.85;;;5.00;99.90;;;;;;4994519;28;20069;-78
2021/12/12 05:45:01;;;;;;;14.65;9.70;;;5.00;99.90;;;;;;4994418;28;20104;-79
2021/12/12 05:47:28;;;;;;;18.17;10.77;;;5.10;99.90;;;;;;4994322;28;20047;-76
2021/12/12 05:49:54;;;;;;;16.60;11.02;;;5.10;99.90;;;;;;4994107;28;20042;-77
2021/12/12 05:52:21;;;;;;;20.05;12.35;;;5.40;99.90;;;;;;4960209;28;20120;-76
2021/12/12 05:54:49;;;;;;;16.77;11.73;;;5.20;99.90;;;;;;4993953;28;20050;-77
2021/12/12 05:57:22;;;;;;;19.70;12.20;;;5.20;99.90;;;;;;4994234;28;20504;-80
2021/12/12 05:59:49;;;;;;;18.60;10.68;;;5.20;99.90;;;;;;4993737;28;20047;-79
2021/12/12 06:02:15;;;;;;;21.67;12.63;;;5.20;99.90;;;;;;4994105;28;20047;-79
2021/12/12 06:04:41;;;;;;;22.83;12.25;;;5.20;99.90;;;;;;4993914;28;20046;-79
2021/12/12 06:07:10;;;;;;;19.83;11.73;;;5.60;99.90;;;;;;4993468;28;20110;-78
2021/12/12 06:09:37;;;;;;;21.05;11.68;;;5.30;99.90;;;;;;4993734;28;20393;-78
2021/12/12 06:12:06;;;;;;;18.13;11.82;;;5.30;99.90;;;;;;4976703;28;20050;-77
2021/12/12 06:14:32;;;;;;;15.75;10.82;;;5.30;99.90;;;;;;4993582;28;20046;-77
2021/12/12 06:17:01;;;;;;;18.05;10.65;;;5.30;99.90;;;;;;4993771;28;20046;-79
2021/12/12 06:19:31;;;;;;;17.33;10.65;;;5.30;99.90;;;;;;4993687;28;20050;-78
2021/12/12 06:21:59;;;;;;;19.58;12.18;;;5.50;99.90;;;;;;4992241;28;20386;-79
2021/12/12 06:24:26;;;;;;;20.08;11.45;;;5.40;99.90;;;;;;4993507;28;20050;-78
2021/12/12 06:26:54;;;;;;;22.15;13.43;;;5.50;99.90;;;;;;4993639;28;20121;-78
2021/12/12 06:29:20;;;;;;;19.67;11.93;;;5.40;99.90;;;;;;4991867;28;20462;-79
2021/12/12 06:31:49;;;;;;;19.77;12.57;;;6.10;99.90;;;;;;4993583;28;20038;-77
2021/12/12 06:34:15;;;;;;;20.20;12.43;;;5.80;99.90;;;;;;4975812;28;20521;-79
2021/12/12 06:36:42;;;;;;;21.42;12.25;;;5.60;99.90;;;;;;4993222;28;20050;-80
2021/12/12 06:39:11;;;;;;;23.02;14.05;;;5.60;99.90;;;;;;4992891;28;20097;-79
2021/12/12 06:41:37;;;;;;;22.85;13.40;;;5.60;99.90;;;;;;4993425;28;20042;-78
2021/12/12 06:44:05;;;;;;;23.67;13.70;;;5.60;99.90;;;;;;4993244;28;20045;-78
2021/12/12 06:46:32;;;;;;;21.52;12.70;;;5.60;99.90;;;;;;4993100;28;20042;-80
2021/12/12 06:48:59;;;;;;;22.23;13.02;;;5.60;99.90;;;;;;4993033;28;20058;-79
2021/12/12 06:51:27;;;;;;;19.75;11.15;;;5.60;99.90;;;;;;4993149;28;20042;-79
2021/12/12 06:53:53;;;;;;;20.70;13.80;;;6.20;99.90;;;;;;4993043;28;20042;-78
2021/12/12 06:56:19;;;;;;;22.30;12.98;;;5.70;99.90;;;;;;4975569;28;20065;-80
2021/12/12 06:58:48;;;;;;;23.83;12.95;;;5.60;99.90;;;;;;4993081;28;20050;-79
2021/12/12 07:01:18;;;;;;;19.67;12.00;;;5.70;99.90;;;;;;4993002;28;20067;-78
2021/12/12 07:03:45;;;;;;;22.30;13.68;;;6.20;99.90;;;;;;4992983;28;20057;-78
2021/12/12 07:06:11;;;;;;;19.88;12.43;;;6.20;99.90;;;;;;4975454;28;20045;-78
2021/12/12 07:08:37;;;;;;;19.88;12.52;;;6.20;99.90;;;;;;4992892;28;20050;-78
2021/12/12 07:11:04;;;;;;;21.17;13.35;;;5.70;99.90;;;;;;4975519;28;20070;-77
2021/12/12 07:13:30;;;;;;;21.65;12.45;;;5.80;99.90;;;;;;4993033;28;20113;-77
2021/12/12 07:15:58;;;;;;;19.30;11.70;;;5.80;99.90;;;;;;4992912;28;20056;-77
2021/12/12 07:18:27;;;;;;;22.42;12.38;;;5.90;99.90;;;;;;4975324;28;20054;-79
2021/12/12 07:20:55;;;;;;;20.23;11.80;;;6.40;99.90;;;;;;4992746;28;20050;-79
2021/12/12 07:23:23;;;;;;;20.20;13.10;;;5.90;99.90;;;;;;4992763;28;20122;-79
2021/12/12 07:25:49;;;;;;;21.25;13.75;;;5.90;99.90;;;;;;4992365;28;20058;-78
2021/12/12 07:28:15;;;;;;;19.88;12.15;;;5.80;99.90;;;;;;4992943;28;20050;-78
2021/12/12 07:30:42;;;;;;;23.50;13.30;;;5.90;99.90;;;;;;4992639;28;20057;-79
2021/12/12 07:33:09;;;;;;;21.13;12.73;;;5.90;99.90;;;;;;4994022;28;20073;-78
2021/12/12 07:35:42;;;;;;;24.52;14.57;;;5.90;99.90;;;;;;4996523;28;20508;-79
2021/12/12 07:38:12;;;;;;;22.40;13.70;;;5.90;99.90;;;;;;4972477;28;20092;-78
2021/12/12 07:40:38;;;;;;;24.48;13.65;;;5.90;99.90;;;;;;4977004;28;20043;-77
2021/12/12 07:43:05;;;;;;;24.75;14.45;;;6.00;99.90;;;;;;4977207;28;20047;-77
2021/12/12 07:45:31;;;;;;;24.10;12.50;;;6.00;99.90;;;;;;4976716;28;20412;-80
2021/12/12 07:47:58;;;;;;;24.23;14.07;;;6.00;99.90;;;;;;4976625;28;20469;-79
2021/12/12 07:50:26;;;;;;;23.98;13.85;;;6.60;99.90;;;;;;4959656;28;20050;-79
2021/12/12 07:52:51;;;;;;;26.95;14.80;;;6.00;99.90;;;;;;4959840;28;20050;-78
2021/12/12 07:55:17;;;;;;;24.63;14.05;;;6.00;99.90;;;;;;4958940;28;20504;-80
2021/12/12 07:57:43;;;;;;;21.60;13.38;;;6.50;99.90;;;;;;4976535;28;20386;-78
2021/12/12 08:00:17;;;;;;;25.48;13.82;;;6.00;99.90;;;;;;4959328;28;20043;-79
2021/12/12 08:02:44;;;;;;;27.88;15.00;;;6.00;99.90;;;;;;4960177;28;20449;-77
2021/12/12 08:05:13;;;;;;;24.15;13.90;;;6.00;99.90;;;;;;4976567;28;20075;-78
2021/12/12 08:07:41;;;;;;;25.67;14.43;;;6.10;99.90;;;;;;4976757;28;20090;-79
2021/12/12 08:10:10;;;;;;;22.58;12.95;;;6.10;99.90;;;;;;4976580;28;20548;-77
2021/12/12 08:12:36;;;;;;;25.88;14.52;;;6.10;99.90;;;;;;4976259;28;20050;-79
2021/12/12 08:15:08;;;;;;;28.00;15.73;;;6.10;99.90;;;;;;4976490;28;20101;-79
2021/12/12 08:17:34;;;;;;;28.17;14.68;;;6.10;99.90;;;;;;4976328;28;20039;-81
2021/12/12 08:20:07;;;;;;;26.73;15.43;;;6.10;99.90;;;;;;4976845;28;20078;-77
2021/12/12 08:22:34;;;;;;;29.95;14.68;;;6.10;99.90;;;;;;4976587;28;20051;-78
2021/12/12 08:25:03;;;;;;;31.67;16.48;;;6.10;99.90;;;;;;4975905;28;20058;-80
2021/12/12 08:27:29;;;;;;;35.75;17.13;;;6.60;99.90;;;;;;4975790;28;20082;-81
2021/12/12 08:29:57;;;;;;;33.90;15.75;;;6.20;99.90;;;;;;4976208;28;20552;-80
2021/12/12 08:32:24;;;;;;;38.35;17.90;;;6.30;99.90;;;;;;4976140;28;20508;-81
2021/12/12 08:34:51;;;;;;;38.35;18.02;;;6.40;99.90;;;;;;4958849;28;20079;-80
2021/12/12 08:37:18;;;;;;;31.40;16.83;;;6.40;99.90;;;;;;4976257;28;20054;-77
2021/12/12 08:39:45;;;;;;;33.13;16.50;;;6.30;99.90;;;;;;4942818;28;20406;-79
2021/12/12 08:42:11;;;;;;;31.98;17.38;;;6.30;99.90;;;;;;4942527;28;20062;-78
2021/12/12 08:44:38;;;;;;;35.60;18.38;;;6.30;99.90;;;;;;4957835;28;20082;-77
2021/12/12 08:47:07;;;;;;;42.38;17.88;;;6.40;99.90;;;;;;4975678;28;20045;-78
2021/12/12 08:49:37;;;;;;;37.63;17.75;;;6.40;99.90;;;;;;4976100;28;20050;-80
2021/12/12 08:52:18;;;;;;;38.67;17.17;;;6.50;99.90;;;;;;4974839;28;20047;-80
2021/12/12 08:54:50;;;;;;;38.83;17.13;;;6.50;99.90;;;;;;4939174;29;20105;-77
2021/12/12 08:57:37;;;;;;;38.38;18.70;;;6.60;99.90;;;;;;4939355;29;20063;-78
2021/12/12 09:00:10;;;;;;;44.75;19.35;;;7.00;99.90;;;;;;4938878;29;20494;-77
2021/12/12 09:02:37;;;;;;;41.40;18.80;;;6.70;99.90;;;;;;4956545;29;20134;-78
2021/12/12 09:05:13;;;;;;;46.85;21.27;;;6.70;99.90;;;;;;4956497;29;20082;-77
2021/12/12 09:07:44;;;;;;;52.90;23.65;;;6.70;99.90;;;;;;4956349;29;20127;-79
2021/12/12 09:10:26;;;;;;;54.60;23.10;;;7.20;99.90;;;;;;4956079;29;20062;-80
2021/12/12 09:13:06;;;;;;;48.58;21.35;;;6.80;99.90;;;;;;4956373;29;20043;-78
2021/12/12 09:15:53;;;;;;;57.53;22.58;;;6.80;99.90;;;;;;4938412;29;20101;-79
2021/12/12 09:18:30;;;;;;;52.50;20.88;;;6.90;99.90;;;;;;4956202;29;20058;-79
2021/12/12 09:21:22;;;;;;;51.92;22.65;;;6.90;99.90;;;;;;4954868;29;20090;-81
2021/12/12 09:24:02;;;;;;;62.00;23.83;;;6.90;99.90;;;;;;4966993;28;20046;-81
2021/12/12 09:26:30;;;;;;;61.50;22.92;;;7.20;99.90;;;;;;4942402;28;20039;-79
2021/12/12 09:28:55;;;;;;;64.97;24.45;;;7.00;99.90;;;;;;4975328;28;20387;-79
2021/12/12 09:31:39;;;;;;;79.75;26.23;;;7.00;99.90;;;;;;4974896;28;20074;-81
2021/12/12 09:34:25;;;;;;;73.63;25.60;;;7.30;99.90;;;;;;4958033;28;20046;-79
2021/12/12 09:36:56;;;;;;;75.13;27.80;;;7.10;99.90;;;;;;4957513;28;20109;-80
2021/12/12 09:39:35;;;;;;;68.10;24.60;;;7.20;99.90;;;;;;4986900;28;20045;-77
2021/12/12 09:42:42;;;;;;;69.60;24.27;;;7.20;99.90;;;;;;4994624;28;20054;-80
2021/12/12 09:45:31;;;;;;;73.80;25.50;;;7.30;99.90;;;;;;4994144;28;20062;-79
2021/12/12 09:51:37;;;;;;;79.90;26.52;;;7.40;99.90;;;;;;4994113;28;20057;-81
2021/12/12 09:54:20;;;;;;;76.63;26.52;;;7.40;99.90;;;;;;4994164;28;20173;-79
2021/12/12 09:56:54;;;;;;;66.38;25.73;;;7.40;99.90;;;;;;4993341;28;20042;-80
2021/12/12 09:59:32;;;;;;;69.93;24.88;;;7.50;99.90;;;;;;4994208;28;20049;-77
2021/12/12 10:02:16;;;;;;;76.10;27.42;;;7.50;99.90;;;;;;4990968;28;20046;-82
2021/12/12 10:05:04;;;;;;;66.20;26.08;;;7.50;99.90;;;;;;4960230;28;20057;-81
2021/12/12 10:07:56;;;;;;;68.93;23.98;;;7.50;99.90;;;;;;4993695;28;20101;-80
2021/12/12 10:10:35;;;;;;;63.65;25.30;;;8.00;99.90;;;;;;4891301;29;20067;-82
2021/12/12 10:13:06;;;;;;;68.55;25.00;;;7.60;99.90;;;;;;4895717;29;20096;-81
2021/12/12 10:15:40;;;;;;;63.55;26.13;;;7.60;99.90;;;;;;4893472;29;20076;-82
2021/12/12 10:18:30;;;;;;;73.18;25.40;;;7.70;99.90;;;;;;4876913;29;20504;-80
2021/12/12 10:21:08;;;;;;;71.38;25.17;;;7.70;99.90;;;;;;4883547;29;20501;-82
2021/12/12 10:23:53;;;;;;;75.82;26.60;;;8.30;99.90;;;;;;4891320;29;20111;-80
2021/12/12 10:26:26;;;;;;;77.80;26.17;;;7.80;99.90;;;;;;4895773;29;20045;-82
2021/12/12 10:28:59;;;;;;;78.20;27.25;;;7.70;99.90;;;;;;4895482;29;20119;-82
2021/12/12 10:31:32;;;;;;;74.85;24.15;;;7.80;99.90;;;;;;4891104;29;20041;-80
2021/12/12 10:34:07;;;;;;;72.28;25.17;;;8.00;99.90;;;;;;4895191;29;20599;-81
2021/12/12 10:36:45;;;;;;;60.85;23.77;;;7.90;99.90;;;;;;4885997;29;20056;-82
2021/12/12 10:39:21;;;;;;;65.65;25.60;;;7.90;99.90;;;;;;4876634;29;20120;-82
2021/12/12 10:41:56;;;;;;;69.88;24.77;;;7.90;99.90;;;;;;4876780;29;20466;-82
2021/12/12 10:44:28;;;;;;;64.45;24.75;;;8.30;99.90;;;;;;4876784;29;20045;-81
2021/12/12 10:47:06;;;;;;;75.88;24.65;;;7.70;99.90;;;;;;4871339;28;20145;-83
2021/12/12 10:49:41;;;;;;;78.55;26.20;;;8.00;99.90;;;;;;4956295;28;20053;-83
2021/12/12 10:52:08;;;;;;;;;;;8.00;99.90;;;;;;4974326;28;20057;-82
2021/12/12 10:55:00;;;;;;;64.93;23.52;;;8.10;99.90;;;;;;4973799;28;19922;-81
2021/12/12 10:57:30;;;;;;;64.38;24.25;;;8.60;99.90;;;;;;4973483;28;20413;-81
2021/12/12 11:00:06;;;;;;;71.13;22.80;;;8.20;99.90;;;;;;4970735;28;20046;-80
2021/12/12 11:02:39;;;;;;;73.43;25.55;;;8.50;99.90;;;;;;4966317;28;20125;-78
2021/12/12 11:05:11;;;;;;;68.25;22.40;;;8.20;99.90;;;;;;4983976;28;20055;-81
2021/12/12 11:07:43;;;;;;;66.57;25.02;;;8.20;99.90;;;;;;4977681;28;20049;-81
2021/12/12 11:10:22;;;;;;;68.05;23.95;;;8.60;99.90;;;;;;4984406;28;20122;-81
2021/12/12 11:13:05;;;;;;;57.17;22.52;;;8.30;99.90;;;;;;4980117;28;20081;-81
2021/12/12 11:15:43;;;;;;;61.70;22.88;;;8.30;99.90;;;;;;4973206;28;20090;-80
2021/12/12 11:18:14;;;;;;;63.40;23.15;;;8.40;99.90;;;;;;4973287;28;20410;-80
2021/12/12 11:20:50;;;;;;;65.63;23.50;;;8.70;99.90;;;;;;4973355;28;20043;-82
2021/12/12 11:23:28;;;;;;;67.32;23.80;;;8.40;99.90;;;;;;4969619;28;20434;-82
2021/12/12 11:26:31;;;;;;;64.68;22.67;;;8.70;99.90;;;;;;4980780;28;20042;-82
2021/12/12 11:29:03;;;;;;;68.00;23.80;;;8.70;99.90;;;;;;4890174;29;20881;-82
2021/12/12 11:31:46;;;;;;;63.17;22.85;;;8.40;99.90;;;;;;4885403;29;20494;-78
2021/12/12 11:34:13;;;;;;;56.47;21.58;;;8.50;99.90;;;;;;4894639;29;20045;-82
2021/12/12 11:37:03;;;;;;;58.08;22.17;;;8.50;99.90;;;;;;4862558;29;20135;-79
2021/12/12 11:39:50;;;;;;;51.53;20.10;;;8.50;99.90;;;;;;4883221;29;20083;-80
2021/12/12 11:42:48;;;;;;;59.10;21.52;;;8.50;99.90;;;;;;4894611;29;20529;-82
2021/12/12 11:45:38;;;;;;;51.00;19.45;;;8.60;99.90;;;;;;4893463;29;20048;-81
2021/12/12 11:48:28;;;;;;;46.03;17.80;;;8.60;99.90;;;;;;4888655;29;20113;-79
2021/12/12 11:50:58;;;;;;;44.17;19.05;;;8.60;99.90;;;;;;4888420;29;20065;-81
2021/12/12 11:53:34;;;;;;;42.42;17.42;;;8.60;99.90;;;;;;4879293;29;20052;-80
2021/12/12 11:56:11;;;;;;;49.30;20.73;;;8.60;99.90;;;;;;4894653;29;20041;-82
2021/12/12 11:59:00;;;;;;;47.53;18.23;;;8.70;99.90;;;;;;4894524;29;20072;-80
2021/12/12 12:01:39;;;;;;;42.42;17.48;;;8.70;99.90;;;;;;4894773;29;20403;-82
2021/12/12 12:04:23;;;;;;;44.38;18.92;;;8.70;99.90;;;;;;4911951;28;20141;-82
2021/12/12 12:07:16;;;;;;;50.90;18.95;;;8.70;99.90;;;;;;4985790;28;20489;-80
2021/12/12 12:10:09;;;;;;;47.55;18.85;;;8.70;99.90;;;;;;4984004;28;20050;-80
2021/12/12 12:13:02;;;;;;;41.72;16.90;;;8.70;99.90;;;;;;4974924;28;20058;-82
2021/12/12 12:15:40;;;;;;;40.90;17.65;;;8.70;99.90;;;;;;4991725;28;20046;-79
2021/12/12 12:18:17;;;;;;;45.00;17.60;;;8.80;99.90;;;;;;4971481;28;20129;-79
2021/12/12 12:20:53;;;;;;;44.17;17.35;;;9.20;99.90;;;;;;4974728;28;20109;-81
2021/12/12 12:27:04;;;;;;;39.88;15.98;;;9.00;99.90;;;;;;4935564;29;20543;-79
2021/12/12 12:29:33;;;;;;;35.50;14.95;;;8.90;99.90;;;;;;4935523;28;20526;-81
2021/12/12 12:32:04;;;;;;;35.45;15.40;;;8.90;99.90;;;;;;4935274;29;20087;-80
2021/12/12 12:35:01;;;;;;;37.85;14.02;;;8.90;99.90;;;;;;4935599;29;20130;-79
2021/12/12 12:38:04;;;;;;;36.28;15.77;;;9.00;99.90;;;;;;4919023;29;20056;-79
2021/12/12 12:40:50;;;;;;;39.38;16.42;;;9.00;99.90;;;;;;4919334;29;20146;-81
2021/12/12 12:43:50;;;;;;;35.13;15.65;;;9.00;99.90;;;;;;4918656;29;20052;-81
2021/12/12 12:46:49;;;;;;;34.47;14.50;;;9.00;99.90;;;;;;4935214;29;20056;-82
2021/12/12 12:49:43;;;;;;;38.70;15.95;;;9.00;99.90;;;;;;4935314;29;20176;-81
2021/12/12 12:52:09;;;;;;;36.95;14.32;;;9.00;99.90;;;;;;4920713;29;20047;-81
2021/12/12 12:55:00;;;;;;;39.08;15.55;;;9.10;99.90;;;;;;4897604;29;20410;-80
2021/12/12 12:57:34;;;;;;;38.58;14.07;;;9.20;99.90;;;;;;4926833;29;20550;-83
2021/12/12 13:00:17;;;;;;;41.60;16.25;;;9.20;99.90;;;;;;4935121;29;20071;-81
2021/12/12 13:03:00;;;;;;;42.22;15.52;;;9.20;99.90;;;;;;4962184;28;20066;-81
2021/12/12 13:05:54;;;;;;;39.75;15.30;;;9.20;99.90;;;;;;4942253;28;20047;-82
2021/12/12 13:08:49;;;;;;;36.20;15.05;;;9.20;99.90;;;;;;4957884;28;20090;-82
2021/12/12 13:11:18;;;;;;;35.80;14.93;;;9.40;99.90;;;;;;4945683;28;20067;-80
2021/12/12 13:14:06;;;;;;;33.13;13.55;;;9.70;99.90;;;;;;4975505;28;20047;-81
2021/12/12 13:16:56;;;;;;;35.15;13.40;;;9.30;99.90;;;;;;4975601;28;20054;-82
2021/12/12 13:19:41;;;;;;;35.22;14.02;;;9.40;99.90;;;;;;4975558;28;20125;-82
2021/12/12 13:22:07;;;;;;;;;;;9.40;99.90;;;;;;4975549;28;20074;-80
2021/12/12 13:25:07;;;;;;;24.83;11.55;;;9.50;99.90;;;;;;4975313;28;19969;-80
2021/12/12 13:30:59;;;;;;;29.63;12.35;;;9.40;99.90;;;;;;4956954;28;20055;-80
2021/12/12 13:33:40;;;;;;;27.48;12.85;;;9.40;99.90;;;;;;4975089;28;20490;-82
2021/12/12 13:36:27;;;;;;;32.92;14.05;;;9.40;99.90;;;;;;4941714;28;20485;-81